メインページ
METAR-TAF:

METAR-TAF

空港 :

北九州空港

北九州, 日本

緯度: 33-50N, 経度: 130-57E, 海抜: 3m

現時点の気象観測

当レポートは56分前の11:00(UTC)に作成
変向風 8kt
気温 19°C
湿度 60%
気圧 1016 hPa
視程10km以上
高度3000ftの雲はほとんどない
高度16000ftの千切れ雲あり

METAR: RJFR 201100Z VRB08KT 9999 FEW030 BKN160 19/11 Q1016

時間: 20:56 (11:56 UTC)

予報

当レポートは45分前の11:11(UTC)に作成
予報は20日の 12時(UTC)から 21日の 18時(UTC)まで有効
東/南東の風 12kt
視程10km以上
高度1500ftの雲はほとんどない
高度3000ftの雲は散在している
20日の 16時(UTC)から 20日の 18時(UTC)まで徐々に
東/北東の風 11kt
21日の 06時(UTC)から 21日の 09時(UTC)まで徐々に
の風 9kt
21日の 15時(UTC)から 21日の 18時(UTC)まで徐々に
東/北東の風 9kt

TAF: RJFR 201111Z 2012/2118 12012KT 9999 FEW015 SCT030 BECMG 2016/2018 07011KT BECMG 2106/2109 10009KT BECMG 2115/2118 07009KT

4,000以上の空港の気象観測と天気予報(METAR報とTAF報)

利用可能な観測所は地図上に黄色い丸と赤い丸で示す。

丸の上にカーソルを重ねると観測所名を参照できる。

次にクリックすると気象観測と天気予報を参照できる。

マップの切り替え:黒色「×」印の緑ボタンをクリックして拡大、「-」印の緑ボタンをクリックして縮小、緑色の三角印をクリックして隣りの地図に切り替え


METAR-TAF: